createdAt,value
2019-03-11T00:00:59.377Z,3.98
2019-03-11T00:01:59.407Z,3.96
2019-03-11T00:02:59.391Z,3.98
2019-03-11T00:03:59.405Z,3.96
2019-03-11T00:04:59.366Z,3.94
2019-03-11T00:05:59.318Z,3.95
2019-03-11T00:06:59.441Z,3.95
2019-03-11T00:07:59.425Z,3.86
2019-03-11T00:08:59.291Z,3.94
2019-03-11T00:09:59.276Z,3.94
2019-03-11T00:10:59.271Z,3.98
2019-03-11T00:11:59.288Z,3.86
2019-03-11T00:12:59.256Z,3.99
2019-03-11T00:13:59.264Z,3.96
2019-03-11T00:14:59.217Z,3.92
2019-03-11T00:15:59.212Z,3.94
2019-03-11T00:16:59.217Z,3.99
2019-03-11T00:17:59.191Z,3.91
2019-03-11T00:18:59.181Z,3.95
2019-03-11T00:19:59.252Z,3.95
2019-03-11T00:20:59.178Z,3.87
2019-03-11T00:21:59.220Z,3.81
2019-03-11T00:22:59.139Z,3.84
2019-03-11T00:23:59.173Z,3.74
2019-03-11T00:24:59.147Z,3.84
2019-03-11T00:25:59.133Z,3.83
2019-03-11T00:26:59.096Z,3.86
2019-03-11T00:27:59.103Z,3.83
2019-03-11T00:28:59.078Z,3.76
2019-03-11T00:29:59.052Z,3.76
2019-03-11T00:30:59.151Z,3.73
2019-03-11T00:31:59.051Z,3.81
2019-03-11T00:32:59.033Z,3.83
2019-03-11T00:33:59.031Z,3.69
2019-03-11T00:34:59.010Z,3.84
2019-03-11T00:35:59.007Z,3.86
2019-03-11T00:36:59.034Z,3.86
2019-03-11T00:37:58.974Z,3.77
2019-03-11T00:38:58.990Z,3.87
2019-03-11T00:39:58.966Z,3.74
2019-03-11T00:40:58.974Z,3.86
2019-03-11T00:41:58.928Z,3.81
2019-03-11T00:42:58.963Z,3.81
2019-03-11T00:43:58.921Z,3.74
2019-03-11T00:44:59.079Z,3.92
2019-03-11T00:45:58.918Z,3.91
2019-03-11T00:46:58.874Z,3.84
2019-03-11T00:48:02.460Z,3.78
2019-03-11T00:48:58.861Z,3.81
2019-03-11T00:49:58.849Z,3.88
2019-03-11T00:50:58.843Z,3.86
2019-03-11T00:51:58.876Z,3.87
2019-03-11T00:52:58.823Z,3.81
2019-03-11T00:53:58.810Z,3.91
2019-03-11T00:54:58.795Z,3.87
2019-03-11T00:55:58.790Z,3.86
2019-03-11T00:56:58.813Z,3.86
2019-03-11T00:57:58.762Z,3.83
2019-03-11T00:58:58.749Z,3.84
2019-03-11T00:59:58.731Z,3.78
2019-03-11T01:00:58.731Z,3.83
2019-03-11T01:01:58.714Z,3.76
2019-03-11T01:02:58.738Z,3.83
2019-03-11T01:03:58.741Z,3.83
2019-03-11T01:04:58.689Z,3.73
2019-03-11T01:05:58.687Z,3.83
2019-03-11T01:06:58.661Z,3.78
2019-03-11T01:07:58.698Z,3.77
2019-03-11T01:08:58.642Z,3.76
2019-03-11T01:09:58.624Z,3.78
2019-03-11T01:10:58.617Z,3.77
2019-03-11T01:11:58.610Z,3.88
2019-03-11T01:12:58.603Z,3.81
2019-03-11T01:13:58.632Z,3.81
2019-03-11T01:14:58.582Z,3.83
2019-03-11T01:15:58.563Z,3.73
2019-03-11T01:16:58.557Z,3.81
2019-03-11T01:17:58.541Z,3.78
2019-03-11T01:18:58.551Z,3.86
2019-03-11T01:19:58.940Z,3.84
2019-03-11T01:20:58.538Z,3.87
2019-03-11T01:21:58.547Z,3.81
2019-03-11T01:22:58.536Z,3.77
2019-03-11T01:23:58.505Z,3.83
2019-03-11T01:24:58.485Z,3.76
2019-03-11T01:25:58.503Z,3.73
2019-03-11T01:26:58.496Z,3.80
2019-03-11T01:27:58.472Z,3.81
2019-03-11T01:28:58.465Z,3.76
2019-03-11T01:29:58.591Z,3.86
2019-03-11T01:30:58.440Z,3.81
2019-03-11T01:31:58.408Z,3.74
2019-03-11T01:32:58.380Z,3.76
2019-03-11T01:33:58.379Z,3.87
2019-03-11T01:34:58.363Z,3.76
2019-03-11T01:35:58.351Z,3.77
2019-03-11T01:36:58.396Z,3.77
2019-03-11T01:37:58.332Z,3.78
2019-03-11T01:38:58.313Z,3.81
2019-03-11T01:39:58.390Z,3.80
2019-03-11T01:40:58.297Z,3.77
2019-03-11T01:41:58.281Z,3.83
2019-03-11T01:42:58.272Z,3.70
2019-03-11T01:43:58.267Z,3.83
2019-03-11T01:44:58.254Z,3.84
2019-03-11T01:45:58.280Z,3.86
2019-03-11T01:46:58.250Z,3.80
2019-03-11T01:47:58.230Z,3.86
2019-03-11T01:48:58.220Z,3.81
2019-03-11T01:49:58.255Z,3.78
2019-03-11T01:50:58.184Z,3.86
2019-03-11T01:51:58.175Z,3.81
2019-03-11T01:52:58.176Z,3.78
2019-03-11T01:53:58.185Z,3.78
2019-03-11T01:54:58.146Z,3.80
2019-03-11T01:55:58.181Z,3.70
2019-03-11T01:56:58.169Z,3.68
2019-03-11T01:57:58.111Z,3.86
2019-03-11T01:58:58.192Z,3.80
2019-03-11T01:59:58.089Z,3.77
2019-03-11T02:00:58.089Z,3.69
2019-03-11T02:01:58.113Z,3.83
2019-03-11T02:02:58.069Z,3.83
2019-03-11T02:03:58.054Z,3.78
2019-03-11T02:05:04.848Z,3.87
2019-03-11T02:05:58.039Z,3.83
2019-03-11T02:06:58.085Z,3.84
2019-03-11T02:07:58.013Z,3.74
2019-03-11T02:08:58.052Z,3.77
2019-03-11T02:09:57.992Z,3.83
2019-03-11T02:10:57.994Z,3.77
2019-03-11T02:11:57.976Z,3.74
2019-03-11T02:12:57.994Z,3.73
2019-03-11T02:13:57.936Z,3.78
2019-03-11T02:14:58.017Z,3.81
2019-03-11T02:15:57.941Z,3.83
2019-03-11T02:16:57.912Z,3.78
2019-03-11T02:17:57.906Z,3.83
2019-03-11T02:18:57.931Z,3.86
2019-03-11T02:19:57.881Z,3.76
2019-03-11T02:20:57.872Z,3.76
2019-03-11T02:21:57.858Z,3.76
2019-03-11T02:22:57.840Z,3.86
2019-03-11T02:23:57.905Z,3.88
2019-03-11T02:24:57.830Z,3.76
2019-03-11T02:25:57.835Z,3.76
2019-03-11T02:26:57.792Z,3.81
2019-03-11T02:27:57.790Z,3.78
2019-03-11T02:28:57.834Z,3.87
2019-03-11T02:29:57.782Z,3.81
2019-03-11T02:30:57.774Z,3.83
2019-03-11T02:31:57.751Z,3.80
2019-03-11T02:32:57.749Z,3.83
2019-03-11T02:33:57.748Z,3.83
2019-03-11T02:34:57.767Z,3.76
2019-03-11T02:35:57.726Z,3.86
2019-03-11T02:36:57.702Z,3.80
2019-03-11T02:37:57.689Z,3.81
2019-03-11T02:38:57.680Z,3.81
2019-03-11T02:39:57.664Z,3.83
2019-03-11T02:40:57.708Z,3.80
2019-03-11T02:41:57.651Z,3.80
2019-03-11T02:42:57.640Z,3.76
2019-03-11T02:43:57.628Z,3.74
2019-03-11T02:44:57.605Z,3.78
2019-03-11T02:45:57.664Z,3.86
2019-03-11T02:46:57.597Z,3.92
2019-03-11T02:47:57.592Z,3.87
2019-03-11T02:48:57.700Z,3.84
2019-03-11T02:49:57.588Z,3.86
2019-03-11T02:50:57.585Z,3.73
2019-03-11T02:51:57.531Z,3.78
2019-03-11T02:52:57.518Z,3.68
2019-03-11T02:53:57.512Z,3.74
2019-03-11T02:54:57.507Z,3.70
2019-03-11T02:55:57.488Z,3.68
2019-03-11T02:56:57.540Z,3.62
2019-03-11T02:57:57.473Z,3.58
2019-03-11T02:58:57.481Z,3.50
2019-03-11T02:59:57.455Z,3.47
2019-03-11T03:00:57.446Z,3.50
2019-03-11T03:01:57.423Z,3.47
2019-03-11T03:02:57.461Z,3.50
2019-03-11T03:03:57.405Z,3.53
2019-03-11T03:04:57.392Z,3.55
2019-03-11T03:05:57.394Z,3.50
2019-03-11T03:06:57.375Z,3.48
2019-03-11T03:07:57.403Z,3.42
2019-03-11T03:08:57.424Z,3.42
2019-03-11T03:09:57.346Z,3.48
2019-03-11T03:10:57.327Z,3.50
2019-03-11T03:11:57.329Z,3.45
2019-03-11T03:12:57.312Z,3.47
2019-03-11T03:13:57.317Z,3.50
2019-03-11T03:14:57.356Z,3.56
2019-03-11T03:15:57.273Z,3.53
2019-03-11T03:16:57.269Z,3.50
2019-03-11T03:17:57.260Z,3.53
2019-03-11T03:18:57.240Z,3.42
2019-03-11T03:19:57.231Z,3.44
2019-03-11T03:20:57.258Z,3.42
2019-03-11T03:21:57.241Z,3.36
2019-03-11T03:22:57.202Z,3.42
2019-03-11T03:23:57.192Z,3.42
2019-03-11T03:24:57.197Z,3.40
2019-03-11T03:25:57.238Z,3.48
2019-03-11T03:26:57.180Z,3.37
2019-03-11T03:27:57.278Z,3.34
2019-03-11T03:28:57.140Z,3.29
2019-03-11T03:29:57.134Z,3.31
2019-03-11T03:30:57.117Z,3.28
2019-03-11T03:31:57.149Z,3.34
2019-03-11T03:32:57.127Z,3.41
2019-03-11T03:33:57.086Z,3.34
2019-03-11T03:34:57.093Z,3.37
2019-03-11T03:35:57.056Z,3.31
2019-03-11T03:36:57.050Z,3.34
2019-03-11T03:37:57.077Z,3.29
2019-03-11T03:38:57.031Z,3.45
2019-03-11T03:39:57.024Z,3.34
2019-03-11T03:40:57.005Z,3.44
2019-03-11T03:41:57.043Z,3.31
2019-03-11T03:42:57.307Z,3.31
2019-03-11T03:43:57.002Z,3.37
2019-03-11T03:44:57.028Z,3.36
2019-03-11T03:45:56.950Z,3.42
2019-03-11T03:46:56.941Z,3.44
2019-03-11T03:47:56.946Z,3.44
2019-03-11T03:48:56.920Z,3.42
2019-03-11T03:49:56.956Z,3.47
2019-03-11T03:50:56.915Z,3.44
2019-03-11T03:51:56.995Z,3.42
2019-03-11T03:52:56.878Z,3.44
2019-03-11T03:53:56.861Z,3.29
2019-03-11T03:54:56.905Z,3.31
2019-03-11T03:55:56.845Z,3.31
2019-03-11T03:56:56.840Z,3.29
2019-03-11T03:57:56.872Z,3.28
2019-03-11T03:58:56.821Z,3.28
2019-03-11T03:59:56.802Z,3.29
2019-03-11T04:00:56.829Z,3.40
2019-03-11T04:01:56.784Z,3.36
2019-03-11T04:02:56.782Z,3.32
2019-03-11T04:03:56.800Z,3.41
2019-03-11T04:04:56.747Z,3.32
2019-03-11T04:05:56.819Z,3.29
2019-03-11T04:06:56.729Z,3.29
2019-03-11T04:07:56.715Z,3.26
2019-03-11T04:08:56.715Z,3.28
2019-03-11T04:09:56.726Z,3.31
2019-03-11T04:10:56.728Z,3.32
2019-03-11T04:11:56.725Z,3.25
2019-03-11T04:12:56.666Z,3.32
2019-03-11T04:13:56.651Z,3.37
2019-03-11T04:14:56.670Z,3.29
2019-03-11T04:15:56.658Z,3.36
2019-03-11T04:16:56.629Z,3.37
2019-03-11T04:17:56.603Z,3.34
2019-03-11T04:18:56.599Z,3.34
2019-03-11T04:19:56.660Z,3.42
2019-03-11T04:20:56.600Z,3.40
2019-03-11T04:21:56.578Z,3.37
2019-03-11T04:22:56.552Z,3.32
2019-03-11T04:23:56.538Z,3.34
2019-03-11T04:24:56.527Z,3.32
2019-03-11T04:25:56.555Z,3.28
2019-03-11T04:26:56.506Z,3.31
2019-03-11T04:27:56.497Z,3.32
2019-03-11T04:28:56.496Z,3.28
2019-03-11T04:29:56.468Z,3.28
2019-03-11T04:30:56.537Z,3.36
2019-03-11T04:31:56.469Z,3.29
2019-03-11T04:32:56.439Z,3.34
2019-03-11T04:33:56.439Z,3.41
2019-03-11T04:34:56.427Z,3.42
2019-03-11T04:35:56.420Z,3.41
2019-03-11T04:36:56.443Z,3.45
2019-03-11T04:37:56.390Z,3.47
2019-03-11T04:38:56.380Z,3.40
2019-03-11T04:39:56.445Z,3.45
2019-03-11T04:40:56.362Z,3.42
2019-03-11T04:41:56.391Z,3.51
2019-03-11T04:42:56.339Z,3.48
2019-03-11T04:43:56.322Z,3.50
2019-03-11T04:44:56.315Z,3.47
2019-03-11T04:45:56.297Z,3.47
2019-03-11T04:46:56.339Z,3.47
2019-03-11T04:47:56.341Z,3.47
2019-03-11T04:48:56.265Z,3.42
2019-03-11T04:49:56.255Z,3.53
2019-03-11T04:50:56.246Z,3.48
2019-03-11T04:51:56.253Z,3.48
2019-03-11T04:52:56.220Z,3.42
2019-03-11T04:53:56.248Z,3.42
2019-03-11T04:54:56.237Z,3.44
2019-03-11T04:55:56.199Z,3.47
2019-03-11T04:56:56.211Z,3.42
2019-03-11T04:57:56.188Z,3.51
2019-03-11T04:58:56.203Z,3.42
2019-03-11T04:59:56.167Z,3.44
2019-03-11T05:00:56.140Z,3.50
2019-03-11T05:01:56.130Z,3.45
2019-03-11T05:02:56.129Z,3.45
2019-03-11T05:03:56.105Z,3.58
2019-03-11T05:04:56.148Z,3.53
2019-03-11T05:06:02.899Z,3.55
2019-03-11T05:06:56.085Z,3.51
2019-03-11T05:07:56.074Z,3.53
2019-03-11T05:08:56.092Z,3.63
2019-03-11T05:09:56.060Z,3.53
2019-03-11T05:10:56.031Z,3.53
2019-03-11T05:11:56.023Z,3.56
2019-03-11T05:12:56.012Z,3.50
2019-03-11T05:13:56.039Z,3.55
2019-03-11T05:14:55.995Z,3.56
2019-03-11T05:15:55.982Z,3.55
2019-03-11T05:16:55.963Z,3.47
2019-03-11T05:17:55.952Z,3.56
2019-03-11T05:18:55.975Z,3.56
2019-03-11T05:19:55.957Z,3.56
2019-03-11T05:20:55.955Z,3.66
2019-03-11T05:21:55.940Z,3.66
2019-03-11T05:22:55.899Z,3.59
2019-03-11T05:23:55.934Z,3.68
2019-03-11T05:24:55.878Z,3.68
2019-03-11T05:25:55.914Z,3.73
2019-03-11T05:26:55.866Z,3.76
2019-03-11T05:27:55.851Z,3.69
2019-03-11T05:28:55.830Z,3.65
2019-03-11T05:29:55.827Z,3.73
2019-03-11T05:30:55.811Z,3.73
2019-03-11T05:31:55.845Z,3.76
2019-03-11T05:32:55.873Z,3.73
2019-03-11T05:33:55.772Z,3.65
2019-03-11T05:34:55.775Z,3.73
2019-03-11T05:35:55.778Z,3.73
2019-03-11T05:36:55.750Z,3.70
2019-03-11T05:37:55.777Z,3.66
2019-03-11T05:38:55.723Z,3.74
2019-03-11T05:39:55.711Z,3.76
2019-03-11T05:40:55.712Z,3.74
2019-03-11T05:41:55.711Z,3.77
2019-03-11T05:42:55.748Z,3.73
2019-03-11T05:43:55.701Z,3.65
2019-03-11T05:44:55.666Z,3.73
2019-03-11T05:45:55.709Z,3.74
2019-03-11T05:46:55.709Z,3.69
2019-03-11T05:47:55.648Z,3.70
2019-03-11T05:48:55.697Z,3.59
2019-03-11T05:49:55.642Z,3.63
2019-03-11T05:50:55.638Z,3.65
2019-03-11T05:51:55.646Z,3.70
2019-03-11T05:52:55.610Z,3.74
2019-03-11T05:53:55.573Z,3.68
2019-03-11T05:54:55.598Z,3.68
2019-03-11T05:55:55.674Z,3.70
2019-03-11T05:56:55.607Z,3.74
2019-03-11T05:57:55.555Z,3.76
2019-03-11T05:58:55.514Z,3.70
2019-03-11T05:59:55.498Z,3.73
2019-03-11T06:00:55.499Z,3.77
2019-03-11T06:01:55.482Z,3.74
2019-03-11T06:02:55.530Z,3.80
2019-03-11T06:03:55.472Z,3.83
2019-03-11T06:04:55.448Z,3.84
2019-03-11T06:05:55.440Z,3.83
2019-03-11T06:06:55.435Z,3.76
2019-03-11T06:07:55.480Z,3.77
2019-03-11T06:08:55.479Z,3.92
2019-03-11T06:09:55.402Z,3.80
2019-03-11T06:10:55.383Z,3.83
2019-03-11T06:11:55.375Z,3.96
2019-03-11T06:12:55.395Z,4.01
2019-03-11T06:13:55.431Z,3.98
2019-03-11T06:14:55.350Z,3.98
2019-03-11T06:15:55.341Z,3.94
2019-03-11T06:16:55.312Z,4.04
2019-03-11T06:17:55.316Z,4.19
2019-03-11T06:18:55.331Z,4.19
2019-03-11T06:19:55.365Z,4.12
2019-03-11T06:20:55.296Z,4.30
2019-03-11T06:21:55.277Z,4.20
2019-03-11T06:22:55.274Z,4.32
2019-03-11T06:23:55.257Z,4.35
2019-03-11T06:24:55.354Z,4.26
2019-03-11T06:25:55.218Z,4.32
2019-03-11T06:26:55.209Z,4.40
2019-03-11T06:27:55.203Z,4.42
2019-03-11T06:28:55.249Z,4.44
2019-03-11T06:29:55.190Z,4.42
2019-03-11T06:30:55.217Z,4.42
2019-03-11T06:31:55.180Z,4.41
2019-03-11T06:32:55.152Z,4.45
2019-03-11T06:33:55.150Z,4.49
2019-03-11T06:34:55.128Z,4.45
2019-03-11T06:35:55.149Z,4.44
2019-03-11T06:36:55.106Z,4.53
2019-03-11T06:37:55.095Z,4.50
2019-03-11T06:39:05.273Z,4.48
2019-03-11T06:39:56.083Z,4.45
2019-03-11T06:40:55.052Z,4.53
2019-03-11T06:41:55.075Z,4.45
2019-03-11T06:42:55.051Z,4.40
2019-03-11T06:43:55.027Z,4.42
2019-03-11T06:44:55.067Z,4.42
2019-03-11T06:45:55.021Z,4.56
2019-03-11T06:46:54.986Z,4.49
2019-03-11T06:47:54.982Z,4.50
2019-03-11T06:48:54.985Z,4.42
2019-03-11T06:49:54.954Z,4.60
2019-03-11T06:50:55.010Z,4.60
2019-03-11T06:51:54.932Z,4.60
2019-03-11T06:52:54.927Z,4.70
2019-03-11T06:53:55.039Z,4.71
2019-03-11T06:54:54.933Z,4.73
2019-03-11T06:55:55.275Z,4.77
2019-03-11T06:56:54.962Z,4.75
2019-03-11T06:57:54.885Z,4.82
2019-03-11T06:58:54.863Z,4.89
2019-03-11T06:59:54.859Z,4.94
2019-03-11T07:00:54.891Z,5.05
2019-03-11T07:01:54.818Z,5.00
2019-03-11T07:02:54.827Z,5.05
2019-03-11T07:03:54.812Z,5.02
2019-03-11T07:04:54.818Z,5.08
2019-03-11T07:05:54.811Z,5.05
2019-03-11T07:06:55.107Z,5.08
2019-03-11T07:07:54.768Z,5.11
2019-03-11T07:08:54.820Z,5.20
2019-03-11T07:09:54.843Z,5.29
2019-03-11T07:10:54.734Z,5.35
2019-03-11T07:11:54.753Z,5.25
2019-03-11T07:12:54.704Z,5.29
2019-03-11T07:13:54.763Z,5.44
2019-03-11T07:14:54.682Z,5.59
2019-03-11T07:15:54.664Z,5.48
2019-03-11T07:16:54.661Z,5.46
2019-03-11T07:17:54.675Z,5.41
2019-03-11T07:18:54.649Z,5.44
2019-03-11T07:19:54.679Z,5.29
2019-03-11T07:20:54.614Z,5.25
2019-03-11T07:21:54.612Z,5.14
2019-03-11T07:22:54.599Z,5.17
2019-03-11T07:23:54.582Z,5.02
2019-03-11T07:24:54.640Z,4.93
2019-03-11T07:25:54.577Z,4.90
2019-03-11T07:26:54.556Z,4.74
2019-03-11T07:27:54.549Z,4.77
2019-03-11T07:28:54.538Z,4.84
2019-03-11T07:29:54.564Z,4.80
2019-03-11T07:30:54.568Z,4.74
2019-03-11T07:31:54.530Z,4.93
2019-03-11T07:32:54.491Z,5.72
2019-03-11T07:33:54.474Z,6.56
2019-03-11T07:34:54.455Z,6.35
2019-03-11T07:35:54.449Z,5.99
2019-03-11T07:36:54.515Z,5.65
2019-03-11T07:37:54.422Z,5.61
2019-03-11T07:38:54.421Z,5.62
2019-03-11T07:39:54.399Z,5.61
2019-03-11T07:40:54.410Z,5.54
2019-03-11T07:41:54.380Z,5.57
2019-03-11T07:42:54.453Z,5.76
2019-03-11T07:43:54.379Z,5.84
2019-03-11T07:44:54.357Z,5.79
2019-03-11T07:45:54.353Z,5.64
2019-03-11T07:46:54.333Z,5.39
2019-03-11T07:47:54.370Z,5.39
2019-03-11T07:48:54.339Z,5.36
2019-03-11T07:49:54.346Z,5.41
2019-03-11T07:50:54.319Z,5.29
2019-03-11T07:51:54.272Z,5.12
2019-03-11T07:52:54.266Z,5.20
2019-03-11T07:53:54.330Z,5.11
2019-03-11T07:54:54.244Z,5.07
2019-03-11T07:55:54.237Z,5.00
2019-03-11T07:56:54.225Z,5.00
2019-03-11T07:57:54.206Z,4.97
2019-03-11T07:58:54.194Z,5.12
2019-03-11T07:59:54.256Z,5.08
2019-03-11T08:00:54.424Z,5.17
2019-03-11T08:01:54.172Z,5.43
2019-03-11T08:02:54.156Z,5.44
2019-03-11T08:03:54.185Z,5.43
2019-03-11T08:04:54.134Z,5.41
2019-03-11T08:05:54.119Z,5.41
2019-03-11T08:06:59.449Z,5.54
2019-03-11T08:07:54.124Z,5.76
2019-03-11T08:08:54.087Z,5.82
2019-03-11T08:09:54.072Z,5.56
2019-03-11T08:10:54.069Z,5.59
2019-03-11T08:11:54.046Z,5.44
2019-03-11T08:12:54.088Z,5.41
2019-03-11T08:13:54.087Z,5.39
2019-03-11T08:14:54.029Z,5.35
2019-03-11T08:15:54.068Z,5.38
2019-03-11T08:16:54.033Z,5.48
2019-03-11T08:17:54.326Z,5.47
2019-03-11T08:18:53.983Z,5.57
2019-03-11T08:19:53.982Z,5.66
2019-03-11T08:20:54.031Z,5.71
2019-03-11T08:21:53.952Z,5.62
2019-03-11T08:22:53.947Z,5.57
2019-03-11T08:23:53.925Z,5.61
2019-03-11T08:24:53.923Z,5.59
2019-03-11T08:25:53.973Z,5.62
2019-03-11T08:26:53.925Z,5.44
2019-03-11T08:27:53.882Z,5.47
2019-03-11T08:28:53.928Z,5.38
2019-03-11T08:29:53.850Z,5.48
2019-03-11T08:30:53.850Z,5.59
2019-03-11T08:31:53.881Z,5.62
2019-03-11T08:32:53.846Z,5.75
2019-03-11T08:33:53.810Z,5.80
2019-03-11T08:34:53.799Z,5.89
2019-03-11T08:35:53.806Z,5.66
2019-03-11T08:36:53.885Z,5.64
2019-03-11T08:37:53.821Z,5.51
2019-03-11T08:38:53.810Z,5.68
2019-03-11T08:39:53.743Z,5.68
2019-03-11T08:40:53.788Z,5.99
2019-03-11T08:41:53.725Z,6.04
2019-03-11T08:42:53.729Z,6.07
2019-03-11T08:43:53.776Z,5.97
2019-03-11T08:44:53.703Z,5.76
2019-03-11T08:45:53.685Z,5.68
2019-03-11T08:46:53.674Z,5.71
2019-03-11T08:47:53.664Z,5.68
2019-03-11T08:48:53.683Z,5.57
2019-03-11T08:49:53.736Z,5.61
2019-03-11T08:50:53.634Z,5.61
2019-03-11T08:51:53.618Z,5.66
2019-03-11T08:52:53.599Z,5.69
2019-03-11T08:53:53.601Z,5.83
2019-03-11T08:54:53.650Z,5.69
2019-03-11T08:55:53.580Z,5.66
2019-03-11T08:56:53.577Z,5.61
2019-03-11T08:57:53.549Z,5.65
2019-03-11T08:58:53.533Z,5.47
2019-03-11T08:59:53.549Z,5.43
2019-03-11T09:00:53.559Z,5.43
2019-03-11T09:01:53.513Z,5.43
2019-03-11T09:02:53.502Z,5.38
2019-03-11T09:03:53.511Z,5.43
2019-03-11T09:04:53.473Z,5.39
2019-03-11T09:05:53.501Z,5.43
2019-03-11T09:06:53.748Z,5.43
2019-03-11T09:07:53.443Z,5.39
2019-03-11T09:08:53.429Z,5.44
2019-03-11T09:09:53.423Z,5.46
2019-03-11T09:10:53.460Z,5.53
2019-03-11T09:11:53.424Z,5.48
2019-03-11T09:12:53.460Z,5.54
2019-03-11T09:13:53.383Z,5.47
2019-03-11T09:14:53.395Z,5.50
2019-03-11T09:15:53.359Z,5.48
2019-03-11T09:16:53.370Z,5.56
2019-03-11T09:17:53.377Z,5.48
2019-03-11T09:18:53.332Z,5.54
2019-03-11T09:19:53.310Z,5.44
2019-03-11T09:20:53.316Z,5.36
2019-03-11T09:21:53.291Z,5.43
2019-03-11T09:22:53.321Z,5.30
2019-03-11T09:23:53.303Z,5.25
2019-03-11T09:24:53.270Z,5.18
2019-03-11T09:25:53.249Z,5.10
2019-03-11T09:26:53.239Z,5.10
2019-03-11T09:27:53.273Z,5.18
2019-03-11T09:28:53.277Z,5.08
2019-03-11T09:29:53.221Z,5.17
2019-03-11T09:30:53.207Z,5.23
2019-03-11T09:31:53.258Z,5.25
2019-03-11T09:32:53.168Z,5.35
2019-03-11T09:33:53.231Z,5.43
2019-03-11T09:34:53.179Z,5.48
2019-03-11T09:35:53.203Z,5.44
2019-03-11T09:36:53.119Z,5.62
2019-03-11T09:37:53.116Z,5.61
2019-03-11T09:38:53.107Z,5.71
2019-03-11T09:39:53.090Z,5.71
2019-03-11T09:40:53.134Z,5.72
2019-03-11T09:41:53.094Z,5.73
2019-03-11T09:42:53.084Z,5.69
2019-03-11T09:43:53.040Z,5.64
2019-03-11T09:44:53.044Z,5.83
2019-03-11T09:45:53.072Z,5.94
2019-03-11T09:46:53.017Z,6.17
2019-03-11T09:47:53.005Z,6.36
2019-03-11T09:48:52.993Z,6.45
2019-03-11T09:49:53.004Z,6.59
2019-03-11T09:50:53.037Z,6.87
2019-03-11T09:51:52.973Z,7.21
2019-03-11T09:52:52.953Z,7.45
2019-03-11T09:53:52.933Z,7.47
2019-03-11T09:54:52.932Z,7.60
2019-03-11T09:55:52.937Z,7.82
2019-03-11T09:56:52.972Z,7.83
2019-03-11T09:57:52.916Z,7.61
2019-03-11T09:58:52.957Z,7.73
2019-03-11T09:59:52.864Z,7.63
2019-03-11T10:00:52.862Z,7.56
2019-03-11T10:01:52.860Z,7.57
2019-03-11T10:02:53.574Z,7.66
2019-03-11T10:03:52.869Z,7.76
2019-03-11T10:04:52.896Z,7.98
2019-03-11T10:05:52.798Z,8.16
2019-03-11T10:06:52.799Z,8.28
2019-03-11T10:07:52.848Z,8.44
2019-03-11T10:08:52.787Z,8.30
2019-03-11T10:09:52.894Z,8.01
2019-03-11T10:10:52.799Z,7.67
2019-03-11T10:11:52.740Z,7.39
2019-03-11T10:12:52.733Z,7.31
2019-03-11T10:13:52.718Z,7.36
2019-03-11T10:14:52.700Z,7.25
2019-03-11T10:15:52.772Z,7.18
2019-03-11T10:16:52.676Z,7.06
2019-03-11T10:17:52.682Z,7.20
2019-03-11T10:18:52.673Z,7.21
2019-03-11T10:19:52.680Z,7.24
2019-03-11T10:20:52.638Z,7.06
2019-03-11T10:21:52.680Z,7.07
2019-03-11T10:22:52.639Z,7.10
2019-03-11T10:23:52.617Z,7.05
2019-03-11T10:24:52.592Z,6.82
2019-03-11T10:25:52.585Z,6.79
2019-03-11T10:26:52.585Z,6.74
2019-03-11T10:27:52.654Z,6.67
2019-03-11T10:28:52.624Z,6.66
2019-03-11T10:29:52.548Z,6.54
2019-03-11T10:30:52.541Z,6.64
2019-03-11T10:31:52.518Z,6.54
2019-03-11T10:32:52.510Z,6.45
2019-03-11T10:33:52.520Z,6.46
2019-03-11T10:34:52.545Z,6.57
2019-03-11T10:35:52.469Z,6.54
2019-03-11T10:36:52.458Z,6.49
2019-03-11T10:37:52.480Z,6.62
2019-03-11T10:38:52.447Z,6.52
2019-03-11T10:39:52.495Z,6.54
2019-03-11T10:40:52.419Z,6.45
2019-03-11T10:41:52.409Z,6.48
2019-03-11T10:42:52.412Z,6.54
2019-03-11T10:43:52.394Z,6.75
2019-03-11T10:44:52.376Z,6.78
2019-03-11T10:45:52.409Z,6.87
2019-03-11T10:46:52.357Z,7.02
2019-03-11T10:47:52.386Z,7.21
2019-03-11T10:48:52.343Z,7.33
2019-03-11T10:49:52.316Z,7.39
2019-03-11T10:50:52.536Z,7.43
2019-03-11T10:51:52.331Z,7.40
2019-03-11T10:52:52.336Z,7.47
2019-03-11T10:53:52.342Z,7.72
2019-03-11T10:54:52.268Z,7.63
2019-03-11T10:55:52.252Z,7.60
2019-03-11T10:56:52.322Z,7.43
2019-03-11T10:57:52.227Z,7.51
2019-03-11T10:58:52.219Z,7.66
2019-03-11T10:59:52.251Z,7.85
2019-03-11T11:00:52.193Z,8.20
2019-03-11T11:01:52.201Z,8.34
2019-03-11T11:02:52.231Z,8.28
2019-03-11T11:03:52.240Z,8.27
2019-03-11T11:04:52.225Z,8.19
2019-03-11T11:05:52.207Z,8.05
2019-03-11T11:06:52.137Z,7.69
2019-03-11T11:07:52.169Z,7.54
2019-03-11T11:08:52.118Z,7.48
2019-03-11T11:09:52.108Z,7.47
2019-03-11T11:10:52.093Z,7.36
2019-03-11T11:11:52.077Z,7.20
2019-03-11T11:12:52.127Z,7.17
2019-03-11T11:13:52.109Z,7.05
2019-03-11T11:14:52.039Z,6.88
2019-03-11T11:15:52.034Z,6.84
2019-03-11T11:16:52.016Z,6.77
2019-03-11T11:17:52.060Z,6.72
2019-03-11T11:18:52.066Z,6.69
2019-03-11T11:20:02.619Z,6.72
2019-03-11T11:20:53.012Z,6.66
2019-03-11T11:21:51.958Z,6.49
2019-03-11T11:22:51.970Z,6.46
2019-03-11T11:23:51.954Z,6.33
2019-03-11T11:24:51.977Z,6.30
2019-03-11T11:25:51.922Z,6.26
2019-03-11T11:26:51.909Z,6.24
2019-03-11T11:27:51.901Z,6.22
2019-03-11T11:28:51.899Z,6.28
2019-03-11T11:29:51.892Z,6.24
2019-03-11T11:30:51.950Z,6.30
2019-03-11T11:31:51.851Z,6.30
2019-03-11T11:32:51.845Z,6.24
2019-03-11T11:33:51.863Z,6.17
2019-03-11T11:34:51.830Z,6.07
2019-03-11T11:35:51.810Z,6.05
2019-03-11T11:36:51.849Z,5.91
2019-03-11T11:37:51.789Z,5.99
2019-03-11T11:38:51.783Z,5.99
2019-03-11T11:39:51.761Z,6.07
2019-03-11T11:40:51.811Z,5.94
2019-03-11T11:41:51.760Z,5.91
2019-03-11T11:42:51.820Z,5.80
2019-03-11T11:43:51.724Z,5.79
2019-03-11T11:44:51.713Z,5.69
2019-03-11T11:45:51.715Z,5.72
2019-03-11T11:46:51.701Z,5.68
2019-03-11T11:47:51.689Z,5.66
2019-03-11T11:48:51.713Z,5.62
2019-03-11T11:49:51.648Z,5.61
2019-03-11T11:50:51.652Z,5.61
2019-03-11T11:51:51.656Z,5.64
2019-03-11T11:52:51.645Z,5.56
2019-03-11T11:53:51.844Z,5.46
2019-03-11T11:54:51.661Z,5.38
2019-03-11T11:55:57.752Z,5.25
2019-03-11T11:56:52.581Z,5.23
2019-03-11T11:57:51.569Z,5.08
2019-03-11T11:58:51.561Z,5.12
2019-03-11T11:59:54.357Z,5.02
2019-03-11T12:00:51.532Z,4.97
2019-03-11T12:01:51.528Z,5.04
2019-03-11T12:02:51.526Z,5.10
2019-03-11T12:03:51.504Z,5.18
2019-03-11T12:04:51.493Z,5.26
2019-03-11T12:05:51.549Z,5.25
2019-03-11T12:06:51.509Z,5.26
2019-03-11T12:09:01.532Z,5.30
2019-03-11T12:10:01.297Z,5.44
2019-03-11T12:11:01.263Z,5.36
2019-03-11T12:12:01.958Z,5.43
2019-03-11T12:13:01.216Z,5.33
2019-03-11T12:14:01.273Z,5.43
2019-03-11T12:15:01.214Z,5.39
2019-03-11T12:16:01.227Z,5.56
2019-03-11T12:17:01.200Z,5.59
2019-03-11T12:18:01.167Z,5.66
2019-03-11T12:19:01.178Z,5.72
2019-03-11T12:20:01.223Z,5.79
2019-03-11T12:21:01.137Z,5.82
2019-03-11T12:22:01.142Z,6.02
2019-03-11T12:23:01.126Z,5.94
2019-03-11T12:24:01.185Z,5.83
2019-03-11T12:25:01.117Z,5.84
2019-03-11T12:26:01.120Z,5.80
2019-03-11T12:27:01.141Z,5.69
2019-03-11T12:28:01.118Z,5.65
2019-03-11T12:29:01.123Z,5.61
2019-03-11T12:30:01.203Z,5.65
2019-03-11T12:31:01.106Z,5.46
2019-03-11T12:32:01.147Z,5.46
2019-03-11T12:33:01.117Z,5.61
2019-03-11T12:34:01.076Z,5.57
2019-03-11T12:35:01.076Z,5.61
2019-03-11T12:36:01.075Z,5.65
2019-03-11T12:37:01.078Z,5.62
2019-03-11T12:38:01.227Z,5.61
2019-03-11T12:39:15.441Z,5.69
2019-03-11T12:40:00.996Z,5.76
2019-03-11T12:41:01.164Z,5.82
2019-03-11T12:42:00.925Z,5.83
2019-03-11T12:43:00.897Z,5.84
2019-03-11T12:44:00.897Z,5.90
2019-03-11T12:45:00.879Z,5.87
2019-03-11T12:46:01.166Z,5.89
2019-03-11T12:47:00.883Z,5.82
2019-03-11T12:48:00.853Z,5.94
2019-03-11T12:49:00.842Z,6.11
2019-03-11T12:50:00.850Z,6.05
2019-03-11T12:51:00.807Z,6.08
2019-03-11T12:52:00.974Z,6.19
2019-03-11T12:53:00.785Z,6.27
2019-03-11T12:54:00.780Z,6.36
2019-03-11T12:55:00.766Z,6.33
2019-03-11T12:56:00.751Z,6.30
2019-03-11T12:57:00.771Z,6.31
2019-03-11T12:58:00.788Z,6.28
2019-03-11T12:59:00.725Z,6.07
2019-03-11T13:00:00.756Z,6.07
2019-03-11T13:01:03.350Z,6.27
2019-03-11T13:02:00.705Z,6.16
2019-03-11T13:03:00.761Z,6.09
2019-03-11T13:04:00.717Z,6.01
2019-03-11T13:05:00.694Z,6.09
2019-03-11T13:06:00.653Z,6.01
2019-03-11T13:07:00.643Z,6.17
2019-03-11T13:08:00.624Z,6.02
2019-03-11T13:09:00.674Z,6.11
2019-03-11T13:10:00.662Z,6.09
2019-03-11T13:11:00.596Z,6.02
2019-03-11T13:12:00.585Z,6.05
2019-03-11T13:13:00.564Z,6.07
2019-03-11T13:14:00.577Z,6.07
2019-03-11T13:15:00.602Z,6.14
2019-03-11T13:16:00.533Z,6.22
2019-03-11T13:17:00.578Z,6.12
2019-03-11T13:18:00.517Z,6.08
2019-03-11T13:19:00.502Z,6.02
2019-03-11T13:20:00.510Z,6.07